Terminal Aerodrome Forecast
Issued by NWS

Current Version | Previous Version | Graphics & Text | Print | Product List | Glossary On
Versions: 1 2 3 4 5 6 7 8 9 10 11 12 13 14 15 16 17 18 19 20
000
FTUS41 KILN 272331
TAFLCK
TAF
KLCK 272331Z 2800/2824 06004KT P6SM VCSH SCT035 BKN100
      TEMPO 2800/2802 5SM -SHRA BR OVC035
     FM280200 06004KT P6SM FEW060 BKN120
     FM280700 05003KT 4SM BR SCT250
     FM281300 09005KT P6SM FEW040 SCT250=

USA.gov is the U.S. government's official web portal to all federal, state and local government web resources and services.